Time;durP1;ratioP1;P1;durP2;ratioP2;P2;SDS_P1;SDS_P2;PMS_P1;PMS_P2;Temp;Humidity;BMP_temperature;BMP_pressure;BME280_temperature;BME280_humidity;BME280_pressure;Samples;Min_cycle;Max_cycle;Signal;HPM_P1;HPM_P2
2023/06/30 00:00:15;;;;;;;;;15.50;15.50;;;;;15.98;100.00;99420.25;6278659;20;2483755;-52
2023/06/30 00:02:46;;;;;;;;;17.50;16.50;;;;;15.85;100.00;99419.59;6282343;20;3443062;-53
2023/06/30 00:05:14;;;;;;;;;15.50;15.50;;;;;15.47;100.00;99421.03;6309409;20;2823241;-52
2023/06/30 00:07:46;;;;;;;;;20.00;19.00;;;;;15.70;100.00;99423.66;6283874;20;3569109;-52
2023/06/30 00:10:14;;;;;;;;;16.33;16.33;;;;;15.48;100.00;99411.06;6275525;20;2822185;-51
2023/06/30 00:12:41;;;;;;;;;20.00;19.50;;;;;15.31;100.00;99415.25;6310021;20;2483831;-54
2023/06/30 00:15:10;;;;;;;;;20.50;19.00;;;;;15.35;100.00;99417.56;6277172;20;2827408;-50
2023/06/30 00:17:38;;;;;;;;;15.00;15.00;;;;;15.15;100.00;99413.84;6278843;20;2822613;-53
2023/06/30 00:20:07;;;;;;;;;16.00;16.00;;;;;14.89;100.00;99415.19;6277949;20;2823137;-48
2023/06/30 00:22:36;;;;;;;;;18.50;18.00;;;;;14.67;100.00;99411.56;6273369;20;2835697;-49
2023/06/30 00:25:04;;;;;;;;;18.00;15.50;;;;;14.54;100.00;99404.63;6280177;20;2492394;-54
2023/06/30 00:27:33;;;;;;;;;18.00;18.00;;;;;14.60;100.00;99410.34;6281816;20;2829555;-53
2023/06/30 00:30:01;;;;;;;;;16.00;16.00;;;;;14.77;100.00;99408.09;6276085;20;2826310;-52
2023/06/30 00:32:31;;;;;;;;;15.50;15.50;;;;;14.82;100.00;99408.56;6280283;20;2823260;-51
2023/06/30 00:35:00;;;;;;;;;16.00;16.00;;;;;14.90;100.00;99401.56;6280371;20;2822468;-51
2023/06/30 00:37:29;;;;;;;;;15.50;15.50;;;;;14.52;100.00;99399.28;6274340;20;2821246;-50
2023/06/30 00:39:57;;;;;;;;;17.00;16.50;;;;;14.75;100.00;99408.25;6276558;20;2826045;-50
2023/06/30 00:42:25;;;;;;;;;20.50;20.50;;;;;14.52;100.00;99396.59;6280633;20;2840957;-51
2023/06/30 00:44:54;;;;;;;;;22.00;20.50;;;;;14.63;100.00;99399.28;6278916;20;2834681;-52
2023/06/30 00:47:22;;;;;;;;;20.50;18.50;;;;;14.87;100.00;99400.94;6278124;20;2835738;-53
2023/06/30 00:49:50;;;;;;;;;20.00;20.00;;;;;15.04;100.00;99396.81;6275172;20;2842053;-49
2023/06/30 00:52:20;;;;;;;;;24.67;21.67;;;;;14.96;100.00;99400.19;6279725;20;2848360;-52
2023/06/30 00:54:48;;;;;;;;;23.00;21.67;;;;;14.90;100.00;99401.56;6313868;20;3577522;-54
2023/06/30 00:57:17;;;;;;;;;24.00;22.67;;;;;14.91;100.00;99397.00;6277414;20;2851498;-54
2023/06/30 00:59:45;;;;;;;;;25.33;22.33;;;;;14.77;100.00;99392.75;6312129;20;3580531;-50
2023/06/30 01:02:28;;;;;;;;;22.00;22.00;;;;;14.75;100.00;99396.56;6278384;20;2846381;-52
2023/06/30 01:05:08;;;;;;;;;26.33;23.00;;;;;14.82;100.00;99397.75;6280899;20;3594041;-49
2023/06/30 01:08:08;;;;;;;;;24.33;21.67;;;;;15.00;100.00;99393.50;6309340;20;3592998;-50
2023/06/30 01:10:38;;;;;;;;;22.33;22.00;;;;;15.10;100.00;99397.16;6280553;20;3587715;-48
2023/06/30 01:13:07;;;;;;;;;23.33;22.33;;;;;15.18;100.00;99395.66;6277174;20;3586756;-52
2023/06/30 01:15:37;;;;;;;;;23.00;23.00;;;;;15.18;100.00;99390.22;6279115;20;3589918;-50
2023/06/30 01:18:08;;;;;;;;;24.67;24.33;;;;;15.11;100.00;99393.47;6278109;20;3602350;-51
2023/06/30 01:20:40;;;;;;;;;26.33;23.33;;;;;15.03;100.00;99384.28;6281300;20;3580557;-53
2023/06/30 01:23:17;;;;;;;;;22.33;22.33;;;;;14.86;100.00;99388.41;6277178;20;3589891;-54
2023/06/30 01:25:48;;;;;;;;;27.00;26.00;;;;;15.03;100.00;99392.38;6277648;20;2860970;-50
2023/06/30 01:28:18;;;;;;;;;24.67;23.67;;;;;15.12;100.00;99384.34;6311281;20;3602319;-54
2023/06/30 01:30:46;;;;;;;;;28.00;28.00;;;;;15.21;100.00;99387.25;6278854;20;3591898;-51
2023/06/30 01:33:15;;;;;;;;;28.33;25.67;;;;;15.14;100.00;99386.94;6279359;20;3594010;-51
2023/06/30 01:35:44;;;;;;;;;26.33;25.33;;;;;14.97;100.00;99380.25;6280786;20;3599238;-48
2023/06/30 01:38:12;;;;;;;;;24.33;24.33;;;;;15.00;100.00;99385.38;6280767;20;3602751;-49
2023/06/30 01:40:41;;;;;;;;;24.67;23.33;;;;;15.33;100.00;99381.66;6277257;20;3596234;-52
2023/06/30 01:43:10;;;;;;;;;21.00;21.00;;;;;15.09;100.00;99376.50;6278117;20;3581653;-49
2023/06/30 01:45:39;;;;;;;;;22.67;21.33;;;;;14.66;100.00;99382.81;6309390;20;3588840;-53
2023/06/30 01:48:07;;;;;;;;;23.00;20.00;;;;;14.85;100.00;99373.16;6277477;20;2833693;-51
2023/06/30 01:50:36;;;;;;;;;22.00;21.00;;;;;15.04;100.00;99377.91;6280493;20;2839956;-51
2023/06/30 01:53:04;;;;;;;;;20.00;20.00;;;;;14.76;100.00;99376.66;6275026;20;2500344;-51
2023/06/30 01:55:32;;;;;;;;;18.50;18.00;;;;;14.50;100.00;99371.53;6279552;20;2839935;-55
2023/06/30 01:58:01;;;;;;;;;21.50;21.50;;;;;14.66;100.00;99369.31;6277955;20;2846207;-47
2023/06/30 02:00:28;;;;;;;;;17.00;17.00;;;;;14.91;100.00;99375.38;6281740;20;2487984;-53
2023/06/30 02:02:57;;;;;;;;;22.00;22.00;;;;;14.41;100.00;99367.78;6284383;20;2844068;-52
2023/06/30 02:05:26;;;;;;;;;24.67;23.00;;;;;14.03;100.00;99362.78;6318403;20;3594019;-49
2023/06/30 02:07:54;;;;;;;;;24.67;20.00;;;;;13.82;100.00;99365.38;6287637;20;3569028;-49
2023/06/30 02:10:23;;;;;;;;;25.00;22.00;;;;;13.59;100.00;99369.94;6282199;20;2856742;-47
2023/06/30 02:12:52;;;;;;;;;22.00;22.00;;;;;14.12;100.00;99367.47;6315658;20;2850275;-52
2023/06/30 02:15:20;;;;;;;;;21.50;21.50;;;;;13.97;100.00;99366.00;6315317;20;3527633;-48
2023/06/30 02:17:49;;;;;;;;;22.00;22.00;;;;;14.17;100.00;99370.66;6314310;20;2841990;-51
2023/06/30 02:20:17;;;;;;;;;23.67;23.67;;;;;14.16;100.00;99368.06;6286034;20;3596057;-53
2023/06/30 02:22:47;;;;;;;;;21.33;21.33;;;;;14.27;100.00;99366.22;6282779;20;3582614;-48
2023/06/30 02:25:16;;;;;;;;;23.33;22.33;;;;;13.95;100.00;99367.97;6315473;20;3586714;-48
2023/06/30 02:27:45;;;;;;;;;21.00;19.67;;;;;14.07;100.00;99375.06;6284229;20;3568135;-51
2023/06/30 02:30:14;;;;;;;;;24.00;22.33;;;;;13.80;100.00;99368.22;6312267;20;3591025;-53
2023/06/30 02:32:43;;;;;;;;;23.33;20.67;;;;;13.71;100.00;99370.78;6283131;20;2847220;-52
2023/06/30 02:35:12;;;;;;;;;23.00;21.00;;;;;13.84;100.00;99375.06;6315110;20;3583695;-49
2023/06/30 02:37:41;;;;;;;;;20.50;19.00;;;;;13.69;100.00;99379.03;6280510;20;2829418;-52
2023/06/30 02:40:09;;;;;;;;;21.00;19.00;;;;;13.65;100.00;99379.38;6282724;20;2837915;-54
2023/06/30 02:42:38;;;;;;;;;20.67;19.00;;;;;13.19;100.00;99367.59;6280028;20;3574287;-51
2023/06/30 02:45:07;;;;;;;;;22.50;21.50;;;;;13.33;100.00;99372.84;6311764;20;2846236;-48
2023/06/30 02:47:35;;;;;;;;;24.00;20.50;;;;;13.42;100.00;99368.56;6284931;20;2833706;-49
2023/06/30 02:50:04;;;;;;;;;22.00;20.67;;;;;13.58;100.00;99371.75;6284471;20;3583660;-52
2023/06/30 02:52:32;;;;;;;;;22.00;21.00;;;;;13.70;100.00;99371.78;6281632;20;2841909;-56
2023/06/30 02:55:01;;;;;;;;;24.00;22.67;;;;;13.70;100.00;99366.38;6285203;20;3587810;-54
2023/06/30 02:57:28;;;;;;;;;25.00;22.00;;;;;13.75;100.00;99373.13;6281770;20;2562903;-50
2023/06/30 02:59:57;;;;;;;;;21.00;19.67;;;;;13.63;100.00;99366.00;6281058;20;2834717;-54
2023/06/30 03:02:26;;;;;;;;;19.33;19.33;;;;;13.84;100.00;99369.69;6317978;20;3571206;-53
2023/06/30 03:04:55;;;;;;;;;20.50;19.00;;;;;13.77;100.00;99363.06;6280191;20;2836888;-54
2023/06/30 03:07:23;;;;;;;;;23.00;21.50;;;;;13.38;100.00;99370.66;6279676;20;2500329;-48
2023/06/30 03:09:51;;;;;;;;;19.50;19.50;;;;;13.18;100.00;99365.91;6281338;20;2836715;-50
2023/06/30 03:12:19;;;;;;;;;22.50;21.50;;;;;13.17;100.00;99365.06;6280537;20;2843274;-51
2023/06/30 03:14:48;;;;;;;;;20.00;19.00;;;;;13.12;100.00;99363.69;6277880;20;2845192;-52
2023/06/30 03:17:16;;;;;;;;;25.00;20.00;;;;;13.55;100.00;99368.44;6282476;20;2835836;-52
2023/06/30 03:19:44;;;;;;;;;27.00;23.00;;;;;13.74;100.00;99362.44;6283317;20;3580492;-54
2023/06/30 03:22:12;;;;;;;;;22.00;19.00;;;;;13.86;100.00;99361.47;6280735;20;2832601;-53
2023/06/30 03:24:40;;;;;;;;;23.00;20.00;;;;;13.72;100.00;99369.81;6280098;20;2829521;-54
2023/06/30 03:27:09;;;;;;;;;22.00;21.33;;;;;13.86;100.00;99368.72;6286108;20;3574247;-56
2023/06/30 03:29:38;;;;;;;;;25.00;20.00;;;;;13.83;100.00;99370.66;6279072;20;2850395;-53
2023/06/30 03:32:06;;;;;;;;;23.33;22.33;;;;;14.03;100.00;99368.19;6313907;20;3594104;-51
2023/06/30 03:34:35;;;;;;;;;22.67;21.67;;;;;13.97;100.00;99374.09;6274488;20;2848274;-50
2023/06/30 03:37:04;;;;;;;;;27.33;25.00;;;;;13.91;100.00;99374.59;6313130;20;3600272;-53
2023/06/30 03:39:32;;;;;;;;;22.00;22.00;;;;;13.91;100.00;99366.50;6279828;20;3578449;-49
2023/06/30 03:42:00;;;;;;;;;22.00;21.00;;;;;14.31;100.00;99368.66;6277890;20;2841019;-52
2023/06/30 03:44:29;;;;;;;;;21.00;19.50;;;;;14.57;100.00;99367.38;6275064;20;2826342;-51
2023/06/30 03:46:58;;;;;;;;;24.00;24.00;;;;;14.38;100.00;99362.63;6275501;20;2850334;-50
2023/06/30 03:49:26;;;;;;;;;20.00;20.00;;;;;14.30;100.00;99354.31;6307291;20;3577369;-51
2023/06/30 03:51:54;;;;;;;;;24.67;20.33;;;;;14.20;100.00;99354.19;6276866;20;3585799;-51
2023/06/30 03:54:23;;;;;;;;;23.00;23.00;;;;;14.62;100.00;99357.06;6276266;20;2847341;-49
2023/06/30 03:56:51;;;;;;;;;20.00;18.50;;;;;14.53;100.00;99354.25;6308595;20;2847314;-54
2023/06/30 03:59:20;;;;;;;;;22.33;22.33;;;;;14.77;100.00;99352.22;6280958;20;3584667;-50
2023/06/30 04:01:48;;;;;;;;;25.00;23.33;;;;;14.70;100.00;99354.56;6281399;20;3598365;-54
2023/06/30 04:04:17;;;;;;;;;22.33;20.00;;;;;14.95;100.00;99348.94;6281398;20;2844202;-56
2023/06/30 04:06:48;;;;;;;;;24.25;20.75;;;;;15.14;100.00;99355.34;6336235;20;3576301;-53
2023/06/30 04:09:18;;;;;;;;;22.33;20.67;;;;;15.15;100.00;99357.06;6280512;20;2845316;-50
2023/06/30 04:11:48;;;;;;;;;25.33;24.00;;;;;15.20;100.00;99353.09;6310627;20;3604531;-49
2023/06/30 04:14:17;;;;;;;;;21.67;20.00;;;;;15.59;100.00;99354.19;6274630;20;2842007;-48
2023/06/30 04:16:45;;;;;;;;;19.50;19.00;;;;;15.58;100.00;99364.13;6307916;20;2838814;-53
2023/06/30 04:19:13;;;;;;;;;18.33;18.33;;;;;15.74;100.00;99362.81;6280871;20;3571115;-49
2023/06/30 04:21:41;;;;;;;;;21.33;20.33;;;;;16.04;100.00;99361.13;6278680;20;3578550;-51
2023/06/30 04:24:10;;;;;;;;;22.00;20.50;;;;;16.41;98.72;99366.78;6281302;20;2840983;-50
2023/06/30 04:26:38;;;;;;;;;23.67;20.67;;;;;16.61;97.86;99371.22;6283116;20;3577323;-49
2023/06/30 04:29:06;;;;;;;;;19.00;19.00;;;;;16.82;96.33;99371.09;6275496;20;2837787;-51
2023/06/30 04:31:35;;;;;;;;;19.50;19.50;;;;;16.75;96.86;99375.38;6281280;20;2806739;-48
2023/06/30 04:34:03;;;;;;;;;22.00;21.00;;;;;16.78;97.56;99374.28;6281262;20;3568094;-52
2023/06/30 04:36:31;;;;;;;;;19.67;19.67;;;;;16.68;98.99;99374.22;6276700;20;3575280;-52
2023/06/30 04:39:00;;;;;;;;;23.33;23.33;;;;;17.17;98.16;99366.97;6277760;20;3577470;-51
2023/06/30 04:41:29;;;;;;;;;22.00;20.67;;;;;17.85;93.52;99368.69;6280559;20;2842173;-52
2023/06/30 04:43:57;;;;;;;;;18.00;18.00;;;;;17.55;95.03;99376.03;6308121;20;2822132;-53
2023/06/30 04:46:26;;;;;;;;;23.33;21.00;;;;;17.48;96.98;99372.19;6281327;20;3580516;-53
2023/06/30 04:48:55;;;;;;;;;23.00;23.00;;;;;18.30;93.77;99374.22;6278418;20;3602434;-52
2023/06/30 04:51:24;;;;;;;;;27.33;25.33;;;;;17.93;93.68;99371.50;6278206;20;3584766;-52
2023/06/30 04:53:53;;;;;;;;;26.33;23.33;;;;;17.56;96.81;99372.31;6280614;20;3592080;-53
2023/06/30 04:56:21;;;;;;;;;27.33;26.00;;;;;17.77;96.41;99362.13;6280658;20;3587903;-61
2023/06/30 04:58:52;;;;;;;;;25.00;22.50;;;;;17.94;95.54;99370.53;6281331;20;2843073;-55
2023/06/30 05:01:21;;;;;;;;;29.00;26.33;;;;;17.92;95.69;99369.81;6276035;20;3588945;-50
2023/06/30 05:03:49;;;;;;;;;26.67;25.67;;;;;17.84;96.66;99359.69;6283159;20;3600435;-51
2023/06/30 05:06:17;;;;;;;;;23.33;21.67;;;;;18.17;95.65;99358.25;6282896;20;3584631;-54
2023/06/30 05:08:45;;;;;;;;;25.00;25.00;;;;;18.54;93.42;99362.75;6281676;20;3593091;-55
2023/06/30 05:11:14;;;;;;;;;22.67;22.33;;;;;18.69;93.32;99362.22;6282087;20;3600334;-54
2023/06/30 05:13:42;;;;;;;;;24.33;23.00;;;;;18.97;91.99;99372.06;6281454;20;3596296;-52
2023/06/30 05:16:13;;;;;;;;;24.00;24.00;;;;;19.05;92.25;99363.97;6277274;20;3586770;-51
2023/06/30 05:18:42;;;;;;;;;29.33;27.00;;;;;19.05;92.84;99363.97;6279210;20;2847414;-53
2023/06/30 05:21:11;;;;;;;;;25.67;23.67;;;;;19.56;92.01;99372.34;6298515;20;3588881;-52
2023/06/30 05:23:39;;;;;;;;;23.00;23.00;;;;;19.64;88.52;99366.09;6274235;20;3581498;-52
2023/06/30 05:26:09;;;;;;;;;23.33;23.33;;;;;19.99;88.51;99367.88;6274507;20;3589900;-51
2023/06/30 05:28:44;;;;;;;;;18.00;18.00;;;;;20.20;86.22;99358.44;6275299;20;3564972;-55
2023/06/30 05:31:27;;;;;;;;;23.33;20.67;;;;;20.25;86.18;99373.28;6274347;20;3563791;-59
2023/06/30 05:33:55;;;;;;;;;22.00;20.33;;;;;20.55;85.63;99371.00;6272232;20;3581636;-57
2023/06/30 05:36:23;;;;;;;;;20.00;18.33;;;;;20.71;83.92;99365.59;6277631;20;3572162;-56
2023/06/30 05:38:51;;;;;;;;;7.33;7.33;;;;;20.83;83.77;99374.31;6273891;20;2752579;-56
2023/06/30 05:41:19;;;;;;;;;22.33;22.00;;;;;21.08;83.41;99374.34;6306702;20;3584876;-54
2023/06/30 05:43:48;;;;;;;;;19.00;19.00;;;;;21.23;82.73;99373.50;6277753;20;2831562;-56
2023/06/30 05:46:17;;;;;;;;;19.33;19.00;;;;;21.28;83.53;99375.72;6311077;20;3577485;-54
2023/06/30 05:48:45;;;;;;;;;19.67;18.33;;;;;21.72;81.85;99383.53;6281065;20;3555617;-50
2023/06/30 05:51:14;;;;;;;;;22.33;22.33;;;;;21.61;82.42;99378.44;6306622;20;3587905;-56
2023/06/30 05:53:42;;;;;;;;;22.33;22.00;;;;;21.67;81.88;99375.88;6310291;20;3585717;-52
2023/06/30 05:56:10;;;;;;;;;21.33;21.00;;;;;21.94;81.76;99376.50;6279830;20;3584085;-56
2023/06/30 05:58:40;;;;;;;;;21.00;20.33;;;;;22.09;80.43;99380.22;6277602;20;3583572;-55
2023/06/30 06:01:08;;;;;;;;;26.33;24.00;;;;;22.39;79.70;99377.72;6275794;20;3590889;-54
2023/06/30 06:03:38;;;;;;;;;24.25;24.25;;;;;22.48;79.45;99376.66;6278032;20;3602487;-53
2023/06/30 06:06:08;;;;;;;;;24.33;22.67;;;;;22.56;79.50;99375.75;6309210;20;3588828;-56
2023/06/30 06:08:43;;;;;;;;;27.14;25.43;;;;;22.76;78.69;99377.00;6325966;20;3598312;-55
2023/06/30 06:11:11;;;;;;;;;26.33;22.67;;;;;23.09;77.01;99378.69;6280690;20;3577380;-59
2023/06/30 06:13:39;;;;;;;;;23.00;23.00;;;;;22.77;76.97;99373.22;6278048;20;3592055;-55
2023/06/30 06:16:08;;;;;;;;;20.33;20.33;;;;;23.05;77.10;99380.09;6274172;20;3574446;-57
2023/06/30 06:18:38;;;;;;;;;22.67;21.67;;;;;23.37;75.40;99385.31;6307834;20;3596186;-58
2023/06/30 06:21:07;;;;;;;;;26.00;24.25;;;;;24.08;73.53;99388.56;6309918;20;3598160;-53
2023/06/30 06:23:35;;;;;;;;;21.00;18.33;;;;;24.15;71.05;99394.16;6311020;20;3561892;-53
2023/06/30 06:26:03;;;;;;;;;18.33;18.00;;;;;24.53;70.69;99396.81;6277426;20;3564851;-55
2023/06/30 06:28:32;;;;;;;;;14.50;14.50;;;;;24.21;70.01;99392.56;6274914;20;2820132;-52
2023/06/30 06:31:00;;;;;;;;;16.00;15.00;;;;;24.48;68.76;99393.78;6276218;20;2823245;-56
2023/06/30 06:33:28;;;;;;;;;12.33;12.33;;;;;24.66;67.31;99393.38;6280265;20;3525357;-57
2023/06/30 06:35:56;;;;;;;;;12.33;12.33;;;;;25.01;67.69;99391.66;6305656;20;2483662;-57
2023/06/30 06:38:24;;;;;;;;;12.33;12.33;;;;;25.17;64.92;99394.19;6309651;20;3541968;-51
2023/06/30 06:40:52;;;;;;;;;16.00;13.33;;;;;25.42;62.60;99392.94;6310001;20;3550303;-54
2023/06/30 06:43:25;;;;;;;;;11.00;11.00;;;;;25.44;60.29;99390.84;6307113;20;3517015;-55
2023/06/30 06:45:54;;;;;;;;;13.33;12.00;;;;;25.73;62.40;99389.81;6275994;20;3535156;-54
2023/06/30 06:48:26;;;;;;;;;11.00;9.67;;;;;25.83;58.33;99384.81;6274180;20;3501100;-55
2023/06/30 06:50:57;;;;;;;;;10.00;10.00;;;;;25.79;58.15;99383.50;6311108;20;2771243;-56
2023/06/30 06:53:32;;;;;;;;;10.00;10.00;;;;;26.01;55.87;99384.31;6310170;20;3503543;-52
2023/06/30 06:56:03;;;;;;;;;8.00;8.00;;;;;25.87;55.24;99386.13;6305208;20;3463838;-56
2023/06/30 06:58:38;;;;;;;;;13.67;12.00;;;;;26.64;55.62;99385.09;6306290;20;2483669;-53
2023/06/30 07:01:06;;;;;;;;;9.33;9.33;;;;;26.67;51.33;99384.72;6307800;20;2758626;-57
2023/06/30 07:03:34;;;;;;;;;11.67;10.33;;;;;26.72;51.60;99381.31;6307913;20;3498303;-55
2023/06/30 07:06:02;;;;;;;;;10.00;10.00;;;;;26.86;49.93;99383.06;6281428;20;2780690;-54
2023/06/30 07:08:34;;;;;;;;;9.33;8.67;;;;;27.28;50.87;99378.31;6307383;20;3471238;-55
2023/06/30 07:11:03;;;;;;;;;10.00;9.00;;;;;27.15;49.74;99378.25;6305178;20;3478502;-49
2023/06/30 07:13:32;;;;;;;;;11.33;9.33;;;;;27.53;47.06;99383.19;6307298;20;3502521;-58
2023/06/30 07:16:00;;;;;;;;;7.33;7.33;;;;;27.66;49.32;99376.81;6315647;20;2751330;-55
2023/06/30 07:18:29;;;;;;;;;9.67;8.67;;;;;27.69;48.21;99388.28;6307774;20;2768001;-56
2023/06/30 07:20:57;;;;;;;;;7.67;7.67;;;;;27.80;48.36;99397.81;6312792;20;2754467;-57
2023/06/30 07:23:25;;;;;;;;;13.67;12.33;;;;;27.25;49.41;99392.53;6308967;20;2483611;-58
2023/06/30 07:25:54;;;;;;;;;12.33;11.00;;;;;27.42;47.73;99392.09;6312882;20;2788842;-56
2023/06/30 07:28:22;;;;;;;;;5.00;5.00;;;;;27.80;49.81;99386.78;6309673;20;2729536;-57
2023/06/30 07:30:50;;;;;;;;;10.67;10.67;;;;;28.53;48.92;99396.88;6308348;20;2786876;-58
2023/06/30 07:33:19;;;;;;;;;9.00;7.33;;;;;28.34;45.95;99390.34;6308208;20;2751317;-57
2023/06/30 07:35:47;;;;;;;;;9.33;9.00;;;;;27.70;45.65;99387.22;6313570;20;2750329;-58
2023/06/30 07:38:15;;;;;;;;;7.00;7.00;;;;;27.75;46.62;99389.31;6304712;20;2754578;-56
2023/06/30 07:40:44;;;;;;;;;9.67;9.67;;;;;28.17;46.78;99395.44;6313468;20;2769072;-57
2023/06/30 07:43:22;;;;;;;;;9.67;7.67;;;;;28.52;44.67;99387.75;6308438;20;2762885;-53
2023/06/30 07:45:51;;;;;;;;;6.33;6.33;;;;;28.51;46.25;99390.72;6309221;20;2739873;-56
2023/06/30 07:48:19;;;;;;;;;6.67;6.67;;;;;28.33;43.98;99385.84;6308344;20;2741973;-57
2023/06/30 07:50:47;;;;;;;;;6.33;6.00;;;;;28.43;44.22;99377.97;6309142;20;2739904;-55
2023/06/30 07:53:35;;;;;;;;;7.00;7.00;;;;;28.01;42.44;99374.69;6314660;20;2742131;-55
2023/06/30 07:56:03;;;;;;;;;7.67;6.00;;;;;28.36;45.08;99377.16;6316703;20;2741976;-56
2023/06/30 07:58:32;;;;;;;;;7.33;5.67;;;;;28.76;42.34;99379.78;6306668;20;2742008;-58
2023/06/30 08:01:00;;;;;;;;;7.33;7.33;;;;;29.04;41.62;99373.84;6309628;20;2747173;-58
2023/06/30 08:03:28;;;;;;;;;6.00;6.00;;;;;28.80;41.17;99367.19;6308964;20;2744045;-57
2023/06/30 08:05:57;;;;;;;;;6.00;6.00;;;;;29.09;41.60;99369.38;6308857;20;2738833;-58
2023/06/30 08:08:26;;;;;;;;;8.33;7.67;;;;;28.48;41.57;99374.59;6309165;20;2743018;-57
2023/06/30 08:10:54;;;;;;;;;8.00;7.33;;;;;28.87;42.30;99381.84;6307898;20;2746186;-59
2023/06/30 08:13:22;;;;;;;;;8.33;8.33;;;;;28.62;42.65;99388.13;6308358;20;2759822;-57
2023/06/30 08:15:50;;;;;;;;;11.33;8.33;;;;;29.44;40.94;99374.47;6306988;20;2766959;-56
2023/06/30 08:18:18;;;;;;;;;7.00;7.00;;;;;28.74;42.06;99373.63;6308259;20;2748289;-58
2023/06/30 08:21:02;;;;;;;;;7.00;5.00;;;;;29.15;42.60;99375.09;6309407;20;2739899;-59
2023/06/30 08:23:31;;;;;;;;;6.00;6.00;;;;;29.31;40.15;99366.28;6316112;20;2733647;-57
2023/06/30 08:25:59;;;;;;;;;7.33;7.33;;;;;29.90;40.67;99367.69;6315285;20;2750332;-57
2023/06/30 08:28:27;;;;;;;;;7.67;6.33;;;;;28.93;40.88;99367.13;6306695;20;2746147;-58
2023/06/30 08:30:55;;;;;;;;;7.33;6.33;;;;;28.80;41.46;99367.19;6305442;20;2744091;-57
2023/06/30 08:33:29;;;;;;;;;4.00;3.33;;;;;28.89;39.20;99365.88;6307085;20;2750360;-58
2023/06/30 08:36:01;;;;;;;;;6.00;6.00;;;;;28.95;39.88;99367.75;6314613;20;2756596;-57
2023/06/30 08:38:29;;;;;;;;;5.00;5.00;;;;;28.87;40.13;99368.88;6307102;20;2734675;-58
2023/06/30 08:40:58;;;;;;;;;6.67;6.00;;;;;28.65;40.51;99365.59;6304462;20;2741025;-58
2023/06/30 08:43:28;;;;;;;;;5.67;5.67;;;;;29.11;40.32;99363.66;6304537;20;2732624;-58
2023/06/30 08:45:57;;;;;;;;;7.00;6.33;;;;;29.00;40.10;99356.88;6307106;20;2746318;-61
2023/06/30 08:48:28;;;;;;;;;6.00;6.00;;;;;28.67;40.20;99360.69;6304586;20;2746231;-59
2023/06/30 08:50:57;;;;;;;;;5.33;5.33;;;;;29.46;38.70;99360.41;6306502;20;2738965;-58
2023/06/30 08:53:26;;;;;;;;;7.67;6.00;;;;;28.59;40.26;99366.44;6305737;20;2728456;-57
2023/06/30 08:55:58;;;;;;;;;4.33;3.67;;;;;28.70;38.41;99364.94;6303817;20;2744087;-58
2023/06/30 08:58:29;;;;;;;;;5.00;5.00;;;;;29.03;39.54;99366.66;6306151;20;2746128;-57
2023/06/30 09:00:58;;;;;;;;;4.67;4.67;;;;;28.80;38.29;99365.28;6305266;20;2741956;-58
2023/06/30 09:03:26;;;;;;;;;6.33;6.33;;;;;29.84;38.62;99365.84;6299479;20;2754488;-60
2023/06/30 09:05:58;;;;;;;;;5.00;5.00;;;;;29.22;39.44;99362.91;6302755;20;2747198;-58
2023/06/30 09:08:46;;;;;;;;;5.00;5.00;;;;;29.60;38.50;99366.69;6305904;20;2738828;-58
2023/06/30 09:11:16;;;;;;;;;5.20;4.80;;;;;29.44;37.55;99357.88;6334758;20;2733670;-58
2023/06/30 09:13:46;;;;;;;;;7.00;5.33;;;;;29.53;37.84;99356.50;6278692;20;2732621;-57
2023/06/30 09:16:17;;;;;;;;;3.00;3.00;;;;;28.65;37.48;99354.53;6332007;20;2737781;-63
2023/06/30 09:18:47;;;;;;;;;6.00;6.00;;;;;28.83;39.19;99350.16;6276352;20;2752486;-56
2023/06/30 09:21:15;;;;;;;;;6.33;6.33;;;;;28.95;39.58;99351.16;6311957;20;2748341;-58
2023/06/30 09:23:43;;;;;;;;;9.50;7.00;;;;;29.31;38.49;99347.75;6314349;20;2636795;-58
2023/06/30 09:26:13;;;;;;;;;6.00;4.33;;;;;28.36;37.69;99338.50;6312356;20;2738533;-59
2023/06/30 09:28:45;;;;;;;;;7.33;6.33;;;;;29.25;38.40;99340.38;6312258;20;2748210;-58
2023/06/30 09:31:15;;;;;;;;;6.00;6.00;;;;;29.08;37.95;99344.75;6313089;20;2739647;-59
2023/06/30 09:33:47;;;;;;;;;6.33;4.67;;;;;29.05;38.34;99340.50;6310326;20;2740970;-57
2023/06/30 09:36:18;;;;;;;;;9.67;6.33;;;;;29.38;38.83;99330.25;6306442;20;2757784;-57
2023/06/30 09:38:46;;;;;;;;;9.00;7.00;;;;;28.80;39.16;99329.34;6307719;20;2745166;-57
2023/06/30 09:41:21;;;;;;;;;5.33;5.33;;;;;27.46;41.24;99324.41;6312161;20;2739976;-55
2023/06/30 09:43:57;;;;;;;;;4.80;4.80;;;;;26.98;42.50;99324.59;6332061;20;2745163;-57
2023/06/30 09:46:27;;;;;;;;;5.67;5.00;;;;;27.99;38.87;99327.16;6280501;20;2730524;-57
2023/06/30 09:48:56;;;;;;;;;5.00;5.00;;;;;29.32;37.68;99329.25;6308723;20;2738828;-56
2023/06/30 09:51:25;;;;;;;;;5.40;5.20;;;;;30.07;36.53;99322.78;6334371;20;2740939;-57
2023/06/30 09:53:53;;;;;;;;;5.00;5.00;;;;;29.79;35.11;99326.94;6280163;20;2740459;-58
2023/06/30 09:56:22;;;;;;;;;6.00;6.00;;;;;29.23;35.66;99322.31;6312012;20;2736746;-58
2023/06/30 09:58:58;;;;;;;;;7.67;6.33;;;;;30.41;37.18;99318.56;6315597;20;2756670;-55
2023/06/30 10:01:26;;;;;;;;;4.33;4.33;;;;;28.73;38.09;99311.16;6311399;20;2743136;-58
2023/06/30 10:03:55;;;;;;;;;6.33;6.33;;;;;27.57;39.60;99310.00;6304942;20;2752528;-55
2023/06/30 10:06:25;;;;;;;;;7.67;7.33;;;;;28.22;39.52;99313.66;6311001;20;2745568;-53
2023/06/30 10:08:57;;;;;;;;;5.33;4.00;;;;;28.42;38.18;99315.50;6314451;20;2743055;-55
2023/06/30 10:11:28;;;;;;;;;5.00;5.00;;;;;29.11;38.11;99311.13;6318410;20;2744093;-54
2023/06/30 10:13:58;;;;;;;;;6.50;6.00;;;;;29.79;37.55;99312.25;6310202;20;2731552;-57
2023/06/30 10:16:29;;;;;;;;;5.00;5.00;;;;;29.77;37.12;99319.94;6334381;20;2736821;-51
2023/06/30 10:18:58;;;;;;;;;6.00;6.00;;;;;29.64;36.35;99316.22;6275277;20;2732589;-52
2023/06/30 10:21:27;;;;;;;;;7.33;7.00;;;;;29.82;35.93;99315.41;6306123;20;2750332;-57
2023/06/30 10:23:57;;;;;;;;;5.67;5.67;;;;;29.91;35.91;99311.28;6304510;20;2742003;-58
2023/06/30 10:26:27;;;;;;;;;5.40;3.40;;;;;29.35;36.20;99306.66;6334963;20;2754454;-57
2023/06/30 10:28:55;;;;;;;;;6.00;6.00;;;;;29.77;35.68;99309.69;6278801;20;2739940;-55
2023/06/30 10:31:25;;;;;;;;;4.40;3.80;;;;;29.18;37.46;99311.06;6334223;20;2727423;-57
2023/06/30 10:33:53;;;;;;;;;5.33;5.33;;;;;29.41;37.19;99314.06;6309742;20;2741022;-57
2023/06/30 10:36:24;;;;;;;;;4.33;4.33;;;;;29.66;35.29;99310.47;6310007;20;2733662;-57
2023/06/30 10:38:54;;;;;;;;;5.33;5.33;;;;;29.25;36.82;99314.63;6309834;20;2737964;-53
2023/06/30 10:41:22;;;;;;;;;7.00;7.00;;;;;29.84;35.49;99313.25;6307518;20;2746123;-55
2023/06/30 10:44:02;;;;;;;;;6.00;6.00;;;;;29.60;36.33;99312.19;6307885;20;2736783;-55
2023/06/30 10:46:52;;;;;;;;;6.00;6.00;;;;;29.61;36.15;99305.56;6308333;20;2741947;-57
2023/06/30 10:49:34;;;;;;;;;6.33;6.33;;;;;29.96;36.04;99310.56;6308192;20;2748662;-55
2023/06/30 10:52:07;;;;;;;;;3.67;3.00;;;;;29.54;35.46;99302.88;6310639;20;2734648;-55
2023/06/30 10:54:42;;;;;;;;;6.33;5.33;;;;;29.82;35.48;99300.72;6309493;20;2738840;-57
2023/06/30 10:57:19;;;;;;;;;3.67;3.67;;;;;29.80;36.24;99306.47;6307889;20;2737787;-55
2023/06/30 11:00:02;;;;;;;;;4.00;4.00;;;;;30.03;35.49;99297.50;6308630;20;2744120;-55
2023/06/30 11:02:34;;;;;;;;;6.00;6.00;;;;;29.66;36.65;99293.84;6311050;20;2733640;-52
2023/06/30 11:05:20;;;;;;;;;7.00;5.00;;;;;30.22;35.56;99292.78;6309465;20;2744031;-56
2023/06/30 11:08:09;;;;;;;;;4.67;4.67;;;;;30.74;35.62;99301.50;6308367;20;2742981;-56
2023/06/30 11:10:45;;;;;;;;;3.80;3.80;;;;;29.95;34.12;99304.19;6332299;20;2744187;-53
2023/06/30 11:13:14;;;;;;;;;4.33;4.33;;;;;29.73;34.33;99295.50;6278087;20;2752425;-53
2023/06/30 11:15:42;;;;;;;;;4.00;4.00;;;;;30.14;34.06;99285.63;6308325;20;2737293;-56